Time;durP1;ratioP1;P1;durP2;ratioP2;P2;SDS_P1;SDS_P2;PMS_P1;PMS_P2;Temp;Humidity;BMP_temperature;BMP_pressure;BME280_temperature;BME280_humidity;BME280_pressure;Samples;Min_cycle;Max_cycle;Signal;HPM_P1;HPM_P2
2022/05/10 00:00:37;;;;;;;24.38;12.15;;;12.40;75.20;;;;;;4823890;29;20497;-76
2022/05/10 00:03:08;;;;;;;21.27;9.85;;;12.40;75.00;;;;;;4823339;29;20053;-76
2022/05/10 00:05:40;;;;;;;20.00;9.85;;;12.40;74.80;;;;;;4793135;29;20141;-76
2022/05/10 00:08:12;;;;;;;20.33;9.80;;;12.40;74.80;;;;;;4808882;29;20042;-74
2022/05/10 00:10:39;;;;;;;24.05;11.07;;;12.30;74.90;;;;;;4808545;29;20042;-73
2022/05/10 00:13:06;;;;;;;24.05;10.43;;;12.30;74.60;;;;;;4792629;29;20065;-75
2022/05/10 00:15:33;;;;;;;22.63;10.50;;;12.30;74.70;;;;;;4823426;29;20094;-75
2022/05/10 00:17:59;;;;;;;18.17;10.60;;;12.20;74.70;;;;;;4793581;29;20111;-73
2022/05/10 00:20:26;;;;;;;20.35;10.27;;;12.20;74.90;;;;;;4793731;29;20054;-76
2022/05/10 00:22:52;;;;;;;24.20;11.77;;;12.30;74.70;;;;;;4793159;29;20046;-74
2022/05/10 00:25:24;;;;;;;25.98;11.05;;;12.30;75.30;;;;;;4824024;29;20046;-75
2022/05/10 00:27:50;;;;;;;24.10;11.10;;;12.20;74.50;;;;;;4823915;29;20058;-74
2022/05/10 00:30:16;;;;;;;21.27;10.57;;;12.10;74.70;;;;;;4808293;29;20038;-76
2022/05/10 00:32:43;;;;;;;27.48;11.65;;;12.10;74.70;;;;;;4793373;29;20149;-73
2022/05/10 00:35:24;;;;;;;26.60;12.13;;;12.10;74.90;;;;;;4808645;29;20061;-76
2022/05/10 00:37:52;;;;;;;20.70;11.65;;;12.20;74.60;;;;;;4824621;29;20126;-75
2022/05/10 00:40:21;;;;;;;23.00;12.48;;;12.20;74.70;;;;;;4838237;29;20389;-75
2022/05/10 00:43:00;;;;;;;18.75;11.15;;;12.10;74.80;;;;;;4823128;29;20046;-75
2022/05/10 00:45:53;;;;;;;20.75;10.90;;;12.10;75.00;;;;;;4822499;29;20050;-73
2022/05/10 00:48:47;;;;;;;25.83;11.93;;;12.00;75.70;;;;;;4807159;29;20042;-75
2022/05/10 00:51:31;;;;;;;22.33;11.90;;;12.10;75.90;;;;;;4793200;29;20496;-74
2022/05/10 00:54:13;;;;;;;27.75;12.25;;;12.00;75.30;;;;;;4808132;29;20053;-75
2022/05/10 00:57:11;;;;;;;19.15;11.57;;;12.00;76.10;;;;;;4824297;29;20495;-74
2022/05/10 00:59:46;;;;;;;;;;;12.00;75.60;;;;;;4808801;29;20391;-75
2022/05/10 01:02:27;;;;;;;29.40;12.73;;;12.00;76.60;;;;;;4808218;29;19977;-74
2022/05/10 01:04:58;;;;;;;24.33;13.68;;;12.10;75.40;;;;;;4823545;29;20050;-75
2022/05/10 01:07:34;;;;;;;28.80;12.98;;;12.00;76.00;;;;;;4839638;29;20097;-75
2022/05/10 01:10:07;;;;;;;31.38;13.73;;;12.10;76.00;;;;;;4810471;29;20065;-75
2022/05/10 01:12:49;;;;;;;30.35;13.98;;;12.00;75.70;;;;;;4844936;29;20097;-72
2022/05/10 01:15:22;;;;;;;25.50;12.85;;;12.00;75.70;;;;;;4804516;29;20061;-73
2022/05/10 01:17:51;;;;;;;25.02;13.18;;;12.00;76.30;;;;;;4813503;29;20050;-73
2022/05/10 01:20:20;;;;;;;25.52;12.80;;;12.00;75.80;;;;;;4797017;29;20046;-74
2022/05/10 01:22:58;;;;;;;22.38;12.65;;;12.00;75.90;;;;;;4796289;29;20050;-76
2022/05/10 01:25:44;;;;;;;23.90;12.88;;;11.90;76.10;;;;;;4841955;29;20074;-76
2022/05/10 01:28:28;;;;;;;27.63;13.32;;;11.90;77.10;;;;;;4811319;29;20052;-74
2022/05/10 01:30:57;;;;;;;25.15;12.95;;;11.90;76.60;;;;;;4810596;29;20046;-73
2022/05/10 01:33:44;;;;;;;25.55;13.57;;;11.90;76.10;;;;;;4795438;29;20046;-74
2022/05/10 01:36:40;;;;;;;25.63;13.93;;;11.90;76.70;;;;;;4796105;29;20062;-74
2022/05/10 01:39:13;;;;;;;26.10;13.95;;;11.80;76.90;;;;;;4811010;29;20050;-73
2022/05/10 01:41:47;;;;;;;19.75;13.23;;;11.80;77.10;;;;;;4825967;29;20050;-74
2022/05/10 01:44:20;;;;;;;28.67;14.00;;;11.80;76.80;;;;;;4825800;29;20548;-74
2022/05/10 01:46:47;;;;;;;27.80;15.18;;;11.80;76.90;;;;;;4795228;29;20061;-74
2022/05/10 01:49:57;;;;;;;23.80;13.43;;;11.90;77.30;;;;;;4826885;29;20107;-75
2022/05/10 01:52:41;;;;;;;24.77;15.05;;;11.90;77.50;;;;;;4790878;29;20123;-74
2022/05/10 01:55:21;;;;;;;28.05;14.63;;;11.90;80.30;;;;;;4787031;30;20042;-74
2022/05/10 01:57:47;;;;;;;22.48;13.88;;;11.80;78.70;;;;;;4799604;29;20093;-73
2022/05/10 02:00:18;;;;;;;24.35;14.27;;;11.90;78.40;;;;;;4841368;29;20093;-74
2022/05/10 02:03:11;;;;;;;25.27;14.15;;;11.90;78.80;;;;;;4841401;29;20384;-75
2022/05/10 02:06:06;;;;;;;21.27;13.48;;;12.00;78.30;;;;;;4794962;29;20050;-76
2022/05/10 02:08:44;;;;;;;24.33;14.50;;;11.90;79.30;;;;;;4810908;29;20046;-73
2022/05/10 02:11:13;;;;;;;22.88;14.35;;;11.90;79.70;;;;;;4810796;29;20114;-75
2022/05/10 02:13:45;;;;;;;28.27;14.93;;;11.90;79.50;;;;;;4826378;29;20053;-76
2022/05/10 02:16:24;;;;;;;39.13;16.05;;;11.90;79.30;;;;;;4810251;29;20053;-74
2022/05/10 02:19:10;;;;;;;27.63;15.55;;;11.90;80.10;;;;;;4795708;29;20081;-75
2022/05/10 02:21:46;;;;;;;27.45;16.13;;;11.90;80.80;;;;;;4810665;29;20049;-75
2022/05/10 02:24:27;;;;;;;28.73;14.90;;;11.90;80.90;;;;;;4795457;29;20046;-76
2022/05/10 02:27:01;;;;;;;27.02;14.95;;;11.90;80.20;;;;;;4809726;29;20490;-74
2022/05/10 02:29:40;;;;;;;28.83;14.98;;;12.00;79.90;;;;;;4826689;29;20049;-75
2022/05/10 02:35:18;;;;;;;21.70;14.73;;;12.10;80.10;;;;;;4814061;29;20058;-73
2022/05/10 02:37:44;;;;;;;27.35;15.18;;;12.10;79.60;;;;;;4846054;29;20108;-74
2022/05/10 02:40:14;;;;;;;25.17;14.32;;;12.10;80.70;;;;;;4815932;29;20106;-72
2022/05/10 02:42:45;;;;;;;24.40;13.98;;;12.20;80.50;;;;;;4819950;29;20050;-72
2022/05/10 02:45:12;;;;;;;25.02;14.43;;;12.20;79.50;;;;;;4818368;29;20046;-74
2022/05/10 02:47:42;;;;;;;24.65;14.70;;;12.10;80.60;;;;;;4810005;29;20046;-74
2022/05/10 02:50:21;;;;;;;25.63;14.93;;;12.20;80.70;;;;;;4809230;29;20433;-75
2022/05/10 02:52:47;;;;;;;27.10;14.40;;;12.20;80.20;;;;;;4795137;29;20085;-73
2022/05/10 02:55:27;;;;;;;26.40;14.90;;;12.30;80.00;;;;;;4840220;29;20081;-76
2022/05/10 02:57:57;;;;;;;27.80;15.57;;;12.30;81.10;;;;;;4810100;29;20276;-76
2022/05/10 03:00:24;;;;;;;23.38;14.80;;;12.40;80.30;;;;;;4840286;29;20043;-75
2022/05/10 03:02:55;;;;;;;28.08;15.48;;;12.40;80.90;;;;;;4825916;29;20053;-74
2022/05/10 03:05:20;;;;;;;27.92;15.05;;;12.40;80.20;;;;;;4809995;29;20058;-74
2022/05/10 03:07:46;;;;;;;21.57;14.03;;;12.50;80.20;;;;;;4809671;29;20476;-75
2022/05/10 03:10:12;;;;;;;28.15;14.30;;;12.50;80.30;;;;;;4826076;29;20300;-76
2022/05/10 03:12:38;;;;;;;26.20;15.50;;;12.60;80.90;;;;;;4839994;29;20043;-75
2022/05/10 03:15:05;;;;;;;26.85;14.63;;;12.60;80.70;;;;;;4809730;29;20133;-76
2022/05/10 03:17:32;;;;;;;24.05;14.05;;;12.60;80.20;;;;;;4825714;29;20450;-76
2022/05/10 03:19:57;;;;;;;28.77;15.15;;;12.60;80.40;;;;;;4794661;29;20085;-74
2022/05/10 03:22:23;;;;;;;27.90;13.75;;;12.70;81.10;;;;;;4793967;29;20081;-75
2022/05/10 03:24:49;;;;;;;31.60;14.63;;;12.70;80.40;;;;;;4809212;29;20053;-76
2022/05/10 03:27:16;;;;;;;27.77;14.93;;;12.70;80.90;;;;;;4809286;29;20126;-74
2022/05/10 03:29:42;;;;;;;23.48;14.38;;;12.70;80.50;;;;;;4809414;29;20392;-73
2022/05/10 03:32:09;;;;;;;27.15;15.05;;;12.80;81.40;;;;;;4809455;29;20046;-76
2022/05/10 03:37:23;;;;;;;26.42;14.13;;;12.80;82.00;;;;;;4809271;29;20050;-76
2022/05/10 03:39:49;;;;;;;27.65;14.90;;;12.80;82.00;;;;;;4808775;29;20195;-77
2022/05/10 03:42:15;;;;;;;27.63;14.02;;;12.90;81.30;;;;;;4808892;29;20077;-75
2022/05/10 03:44:40;;;;;;;21.75;13.85;;;12.90;81.70;;;;;;4808783;29;20050;-74
2022/05/10 03:47:12;;;;;;;27.27;14.55;;;12.90;81.50;;;;;;4824675;29;20050;-75
2022/05/10 03:49:37;;;;;;;25.50;14.25;;;12.90;82.40;;;;;;4838988;29;20047;-74
2022/05/10 03:52:03;;;;;;;23.03;12.97;;;13.00;81.30;;;;;;4808299;29;20391;-74
2022/05/10 03:54:29;;;;;;;24.98;14.45;;;13.00;81.70;;;;;;4808822;29;20772;-76
2022/05/10 03:56:55;;;;;;;24.67;14.20;;;13.00;82.10;;;;;;4808533;29;20049;-75
2022/05/10 03:59:22;;;;;;;26.23;13.98;;;13.00;81.70;;;;;;4808521;29;20043;-74
2022/05/10 04:01:47;;;;;;;24.30;14.15;;;13.10;82.00;;;;;;4808216;29;20038;-74
2022/05/10 04:04:14;;;;;;;21.15;13.77;;;13.20;81.60;;;;;;4839274;29;20042;-77
2022/05/10 04:06:40;;;;;;;21.35;14.02;;;13.20;81.90;;;;;;4827019;29;20054;-75
2022/05/10 04:09:06;;;;;;;31.10;14.07;;;13.20;82.00;;;;;;4829632;29;20049;-76
2022/05/10 04:11:33;;;;;;;22.45;13.85;;;13.30;81.90;;;;;;4816666;29;20050;-72
2022/05/10 04:13:58;;;;;;;;;;;13.20;81.70;;;;;;4818251;29;20042;-72
2022/05/10 04:16:24;;;;;;;29.05;14.68;;;13.20;82.60;;;;;;4812039;29;19982;-75
2022/05/10 04:18:50;;;;;;;23.73;14.57;;;13.30;81.90;;;;;;4808872;29;20440;-75
2022/05/10 04:21:16;;;;;;;21.45;14.52;;;13.30;82.50;;;;;;4825220;29;20065;-76
2022/05/10 04:23:41;;;;;;;22.42;15.05;;;13.20;82.10;;;;;;4808451;29;20050;-75
2022/05/10 04:26:10;;;;;;;21.00;13.73;;;13.20;82.40;;;;;;4840645;29;20125;-75
2022/05/10 04:28:36;;;;;;;28.45;15.35;;;13.40;82.40;;;;;;4810268;29;20091;-78
2022/05/10 04:31:03;;;;;;;22.10;13.27;;;13.30;82.40;;;;;;4808632;29;20047;-78
2022/05/10 04:33:29;;;;;;;21.98;13.48;;;13.30;82.60;;;;;;4827922;29;20038;-76
2022/05/10 04:35:55;;;;;;;24.98;14.07;;;13.30;82.20;;;;;;4897000;24;20037;-73
2022/05/10 04:38:21;;;;;;;20.90;13.65;;;13.40;82.10;;;;;;4835697;29;20070;-77
2022/05/10 04:43:34;;;;;;;;;;;13.40;82.00;;;;;;4829346;29;20415;-75
2022/05/10 04:46:00;;;;;;;22.23;14.18;;;13.40;82.60;;;;;;4826404;29;19920;-76
2022/05/10 04:48:25;;;;;;;21.65;13.25;;;13.30;82.50;;;;;;4810511;29;20046;-76
2022/05/10 04:50:52;;;;;;;27.30;14.50;;;13.40;82.00;;;;;;4828853;29;20061;-75
2022/05/10 04:53:18;;;;;;;;;;;13.50;82.00;;;;;;4829884;29;20050;-76
2022/05/10 04:55:43;;;;;;;26.58;14.00;;;13.40;82.30;;;;;;4829992;29;19916;-76
2022/05/10 04:58:09;;;;;;;22.45;14.65;;;13.50;81.90;;;;;;4845110;29;20049;-74
2022/05/10 05:00:38;;;;;;;27.13;14.65;;;13.60;82.10;;;;;;4814929;29;20141;-77
2022/05/10 05:03:03;;;;;;;31.50;14.15;;;13.60;82.50;;;;;;4829377;29;20488;-76
2022/05/10 05:05:29;;;;;;;23.85;13.50;;;13.60;82.30;;;;;;4830135;29;20049;-76
2022/05/10 05:07:55;;;;;;;25.35;14.00;;;13.60;82.20;;;;;;4830055;29;20142;-76
2022/05/10 05:10:20;;;;;;;22.63;13.60;;;13.70;81.80;;;;;;4829800;29;20046;-75
2022/05/10 05:12:46;;;;;;;25.33;13.43;;;13.70;81.90;;;;;;4829864;29;20436;-75
2022/05/10 05:15:13;;;;;;;23.60;13.30;;;13.70;81.90;;;;;;4829875;29;20388;-76
2022/05/10 05:17:38;;;;;;;26.92;13.27;;;13.70;81.70;;;;;;4814906;29;20092;-74
2022/05/10 05:20:05;;;;;;;19.02;12.35;;;13.80;81.60;;;;;;4829475;29;20085;-74
2022/05/10 05:22:31;;;;;;;19.90;12.02;;;13.90;81.00;;;;;;4829367;29;20098;-75
2022/05/10 05:24:56;;;;;;;19.30;13.32;;;14.00;80.70;;;;;;4829679;29;20050;-77
2022/05/10 05:27:22;;;;;;;19.27;12.45;;;14.00;80.10;;;;;;4814494;29;20046;-75
2022/05/10 05:29:48;;;;;;;21.85;11.15;;;14.10;79.70;;;;;;4799332;29;20057;-76
2022/05/10 05:32:17;;;;;;;22.10;12.02;;;14.30;78.10;;;;;;4829116;29;20500;-75
2022/05/10 05:34:43;;;;;;;19.45;11.75;;;14.40;78.20;;;;;;4829293;29;20065;-76
2022/05/10 05:39:53;;;;;;;21.23;11.15;;;14.40;78.00;;;;;;4835537;29;20398;-74
2022/05/10 05:42:18;;;;;;;17.52;10.82;;;14.50;78.10;;;;;;4822645;29;20065;-73
2022/05/10 05:44:44;;;;;;;22.35;10.93;;;14.60;77.80;;;;;;4825141;29;20052;-72
2022/05/10 05:47:10;;;;;;;21.70;11.75;;;14.60;77.40;;;;;;4835534;29;20414;-77
2022/05/10 05:49:36;;;;;;;16.48;11.05;;;14.70;77.50;;;;;;4814536;29;20050;-75
2022/05/10 05:52:03;;;;;;;23.42;10.73;;;14.80;77.00;;;;;;4829365;29;20079;-76
2022/05/10 05:54:28;;;;;;;;;;;14.90;76.50;;;;;;4829297;29;20057;-76
2022/05/10 05:57:02;;;;;;;18.27;9.95;;;15.00;76.30;;;;;;4829311;29;19921;-75
2022/05/10 05:59:28;;;;;;;23.48;10.88;;;15.00;76.50;;;;;;4813666;29;20049;-74
2022/05/10 06:01:54;;;;;;;21.33;10.90;;;15.10;76.00;;;;;;4814028;29;20048;-76
2022/05/10 06:04:20;;;;;;;16.58;10.23;;;15.10;76.00;;;;;;4828945;29;20090;-74
2022/05/10 06:06:46;;;;;;;20.63;9.88;;;15.10;76.20;;;;;;4829009;29;20439;-77
2022/05/10 06:09:12;;;;;;;18.08;10.13;;;15.20;76.20;;;;;;4828999;29;20045;-75
2022/05/10 06:11:38;;;;;;;18.60;10.18;;;15.20;75.70;;;;;;4813893;29;20069;-74
2022/05/10 06:14:04;;;;;;;16.95;9.95;;;15.30;75.90;;;;;;4828733;29;20046;-77
2022/05/10 06:16:30;;;;;;;16.38;9.80;;;15.30;75.90;;;;;;4813795;29;20063;-74
2022/05/10 06:18:56;;;;;;;19.02;10.10;;;15.40;75.30;;;;;;4798975;29;20062;-76
2022/05/10 06:21:22;;;;;;;21.52;10.25;;;15.50;75.40;;;;;;4828692;29;20134;-76
2022/05/10 06:23:48;;;;;;;23.80;10.55;;;15.50;74.80;;;;;;4828336;29;20046;-75
2022/05/10 06:26:13;;;;;;;19.92;9.65;;;15.50;75.40;;;;;;4813618;29;20046;-76
2022/05/10 06:28:42;;;;;;;16.00;10.57;;;15.60;74.70;;;;;;4813364;29;20406;-75
2022/05/10 06:31:09;;;;;;;18.48;10.20;;;15.60;74.30;;;;;;4828412;29;20128;-76
2022/05/10 06:33:36;;;;;;;15.52;10.32;;;15.70;73.50;;;;;;4828294;29;20046;-75
2022/05/10 06:36:02;;;;;;;;;;;15.80;73.80;;;;;;4798488;29;20364;-76
2022/05/10 06:38:28;;;;;;;18.38;10.35;;;15.80;73.30;;;;;;4828036;29;19920;-76
2022/05/10 06:41:01;;;;;;;18.60;9.77;;;15.90;73.10;;;;;;4828060;29;20060;-75
2022/05/10 06:43:34;;;;;;;17.40;10.02;;;15.90;72.80;;;;;;4812548;29;20488;-76
2022/05/10 06:45:59;;;;;;;18.75;10.02;;;15.80;72.80;;;;;;4813062;29;20211;-76
2022/05/10 06:48:25;;;;;;;21.05;10.88;;;15.80;73.40;;;;;;4797839;29;20546;-74
2022/05/10 06:50:51;;;;;;;16.15;10.18;;;15.80;73.50;;;;;;4827593;29;20487;-74
2022/05/10 06:53:17;;;;;;;16.05;10.32;;;15.70;74.80;;;;;;4844327;29;20050;-75
2022/05/10 06:55:43;;;;;;;18.38;10.52;;;15.80;74.90;;;;;;4812681;29;20510;-75
2022/05/10 06:58:12;;;;;;;16.40;10.18;;;15.80;75.80;;;;;;4827957;29;20101;-76
2022/05/10 07:00:42;;;;;;;15.30;9.77;;;15.80;76.20;;;;;;4827704;29;20450;-75
2022/05/10 07:03:12;;;;;;;15.02;10.10;;;15.90;76.60;;;;;;4797838;29;20081;-76
2022/05/10 07:05:40;;;;;;;15.65;9.95;;;15.80;76.10;;;;;;4828047;29;20079;-75
2022/05/10 07:08:06;;;;;;;18.67;9.77;;;16.00;74.20;;;;;;4812771;29;20193;-75
2022/05/10 07:10:32;;;;;;;20.30;10.82;;;16.00;74.20;;;;;;4833388;29;20149;-75
2022/05/10 07:12:58;;;;;;;20.63;9.20;;;15.90;75.60;;;;;;4833429;29;20105;-74
2022/05/10 07:15:24;;;;;;;22.10;10.90;;;16.10;74.50;;;;;;4838251;29;20387;-72
2022/05/10 07:17:50;;;;;;;22.40;11.75;;;16.20;74.20;;;;;;4822929;29;20060;-73
2022/05/10 07:20:17;;;;;;;15.85;9.18;;;16.10;75.10;;;;;;4813695;29;20085;-75
2022/05/10 07:22:44;;;;;;;19.48;10.25;;;16.10;75.70;;;;;;4827820;29;20046;-76
2022/05/10 07:25:16;;;;;;;19.40;8.13;;;16.30;73.70;;;;;;4812675;29;20453;-77
2022/05/10 07:27:42;;;;;;;17.55;8.10;;;16.40;72.50;;;;;;4827538;29;20042;-77
2022/05/10 07:30:12;;;;;;;18.20;8.18;;;16.60;71.20;;;;;;4812335;29;20053;-77
2022/05/10 07:32:38;;;;;;;21.25;8.63;;;16.70;70.00;;;;;;4827684;29;20551;-75
2022/05/10 07:35:05;;;;;;;14.57;9.00;;;16.70;71.20;;;;;;4811997;29;20049;-75
2022/05/10 07:37:33;;;;;;;19.50;10.07;;;16.80;70.50;;;;;;4827017;29;20535;-76
2022/05/10 07:40:00;;;;;;;22.98;10.02;;;16.80;70.30;;;;;;4812360;29;20550;-76
2022/05/10 07:42:26;;;;;;;16.65;9.73;;;16.90;69.70;;;;;;4827550;29;20052;-75
2022/05/10 07:44:52;;;;;;;22.40;9.25;;;17.00;69.60;;;;;;4827484;29;20402;-75
2022/05/10 07:47:18;;;;;;;19.05;9.88;;;17.10;69.00;;;;;;4812212;29;20053;-76
2022/05/10 07:49:44;;;;;;;19.63;10.60;;;17.20;69.00;;;;;;4812199;29;20456;-77
2022/05/10 07:52:14;;;;;;;23.15;10.60;;;17.20;69.60;;;;;;4812168;29;20053;-75
2022/05/10 07:54:39;;;;;;;21.45;9.70;;;17.30;69.10;;;;;;4812115;29;20056;-76
2022/05/10 07:57:05;;;;;;;18.33;10.18;;;17.50;69.20;;;;;;4827061;29;20050;-75
2022/05/10 07:59:31;;;;;;;18.55;10.60;;;17.60;68.50;;;;;;4811544;29;20049;-73
2022/05/10 08:01:58;;;;;;;25.83;10.15;;;17.70;68.40;;;;;;4811854;29;20034;-75
2022/05/10 08:04:24;;;;;;;14.77;9.70;;;17.80;68.20;;;;;;4812230;29;20050;-76
2022/05/10 08:06:50;;;;;;;16.33;9.77;;;18.00;67.40;;;;;;4811903;29;20109;-76
2022/05/10 08:09:16;;;;;;;16.95;9.07;;;18.10;67.00;;;;;;4827009;29;20049;-76
2022/05/10 08:11:43;;;;;;;17.50;9.13;;;18.20;67.70;;;;;;4826844;29;20050;-75
2022/05/10 08:14:09;;;;;;;17.17;9.45;;;18.20;66.50;;;;;;4796491;29;20107;-74
2022/05/10 08:16:35;;;;;;;16.85;8.57;;;18.30;66.70;;;;;;4828590;29;20041;-74
2022/05/10 08:19:01;;;;;;;16.70;8.88;;;18.40;64.90;;;;;;4818029;29;20053;-75
2022/05/10 08:21:27;;;;;;;18.90;8.43;;;18.50;65.70;;;;;;4819453;29;20204;-74
2022/05/10 08:23:55;;;;;;;16.10;8.30;;;18.50;65.10;;;;;;4820706;29;20132;-73
2022/05/10 08:26:24;;;;;;;18.83;7.85;;;18.70;64.00;;;;;;4834280;29;20125;-77
2022/05/10 08:28:50;;;;;;;16.33;8.45;;;18.90;64.70;;;;;;4827193;29;20502;-75
2022/05/10 08:31:16;;;;;;;;;;;19.00;63.50;;;;;;4811987;29;20042;-75
2022/05/10 08:33:45;;;;;;;15.57;7.03;;;19.20;63.20;;;;;;4811303;29;20408;-77
2022/05/10 08:36:11;;;;;;;15.18;6.45;;;19.40;62.20;;;;;;4827692;29;20102;-76
2022/05/10 08:38:37;;;;;;;12.38;6.82;;;19.60;61.40;;;;;;4827725;29;20054;-76
2022/05/10 08:41:24;;;;;;;;;;;19.70;61.40;;;;;;4811910;29;20463;-74
2022/05/10 08:44:18;;;;;;;11.48;6.53;;;19.70;59.60;;;;;;4831320;29;19925;-75
2022/05/10 08:46:47;;;;;;;13.05;6.78;;;19.70;59.70;;;;;;4826357;29;20050;-76
2022/05/10 08:49:55;;;;;;;12.93;6.75;;;19.70;61.20;;;;;;4842782;29;20026;-82
2022/05/10 08:52:45;;;;;;;18.63;7.50;;;19.70;61.30;;;;;;4831145;29;20045;-78
2022/05/10 08:59:30;;;;;;;11.52;6.53;;;19.50;60.20;;;;;;4886584;23;20057;-75
2022/05/10 09:02:17;;;;;;;12.70;6.68;;;19.60;61.80;;;;;;4833762;29;20088;-75
2022/05/10 09:04:59;;;;;;;13.50;7.57;;;19.60;61.60;;;;;;4815747;29;20071;-74
2022/05/10 09:07:57;;;;;;;13.50;7.30;;;19.60;61.70;;;;;;4810442;29;20042;-74
2022/05/10 09:10:52;;;;;;;20.50;8.20;;;19.70;61.10;;;;;;4808031;29;20050;-76
2022/05/10 09:13:20;;;;;;;22.00;7.82;;;19.90;60.80;;;;;;4808032;29;20487;-76
2022/05/10 09:16:04;;;;;;;24.05;8.35;;;20.00;61.70;;;;;;4778298;29;20090;-77
2022/05/10 09:18:49;;;;;;;19.63;7.47;;;20.10;60.50;;;;;;4793178;29;20457;-78
2022/05/10 09:21:24;;;;;;;15.15;8.30;;;20.30;60.30;;;;;;4808570;29;20050;-76
2022/05/10 09:24:27;;;;;;;17.70;7.68;;;20.40;59.70;;;;;;4824029;29;20095;-82
2022/05/10 09:27:41;;;;;;;18.30;7.18;;;20.40;59.00;;;;;;4822850;29;20065;-79
2022/05/10 09:52:30;;;;;;;15.48;8.65;;;20.60;60.30;;;;;;4768054;30;20106;-83
2022/05/10 10:04:42;;;;;;;15.10;8.25;;;20.50;59.90;;;;;;4829344;27;20467;-76
2022/05/10 10:07:15;;;;;;;24.25;8.18;;;20.50;59.90;;;;;;4810926;29;20133;-76
2022/05/10 10:09:46;;;;;;;15.40;8.20;;;20.50;59.90;;;;;;4810407;29;20094;-76
2022/05/10 10:12:29;;;;;;;15.93;8.50;;;20.60;60.10;;;;;;4811230;29;20038;-76
2022/05/10 10:14:55;;;;;;;21.92;8.00;;;20.60;59.10;;;;;;4795869;29;20120;-77
2022/05/10 10:17:31;;;;;;;17.73;8.20;;;20.60;58.70;;;;;;4810664;29;20164;-77
2022/05/10 10:20:21;;;;;;;13.95;8.13;;;20.70;59.20;;;;;;4810725;29;20116;-76
2022/05/10 10:23:24;;;;;;;18.88;7.80;;;20.60;58.50;;;;;;4795254;29;20562;-78
2022/05/10 10:25:52;;;;;;;17.73;7.95;;;20.50;59.00;;;;;;4795286;29;20046;-78
2022/05/10 10:28:38;;;;;;;25.98;9.65;;;20.60;59.60;;;;;;4809808;29;20082;-79
2022/05/10 10:31:27;;;;;;;15.75;7.82;;;20.60;60.30;;;;;;4809931;29;20062;-78
2022/05/10 10:37:57;;;;;;;15.88;6.07;;;20.50;59.60;;;;;;4826045;29;20098;-78
2022/05/10 10:44:52;;;;;;;13.02;6.32;;;20.60;59.20;;;;;;4825865;29;20061;-74
2022/05/10 10:48:10;;;;;;;12.35;5.93;;;20.70;59.60;;;;;;4807326;29;20146;-74
2022/05/10 10:51:01;;;;;;;12.15;5.20;;;21.00;59.00;;;;;;4722183;29;20056;-78
2022/05/10 10:53:43;;;;;;;11.25;4.38;;;21.00;57.90;;;;;;4794629;29;20604;-75
2022/05/10 10:56:33;;;;;;;12.13;4.85;;;21.00;57.20;;;;;;4796068;29;20046;-76
2022/05/10 10:59:52;;;;;;;15.73;4.43;;;21.00;56.00;;;;;;4795198;29;20038;-76
2022/05/10 11:03:08;;;;;;;12.25;4.75;;;20.80;55.30;;;;;;4810017;29;20047;-76
2022/05/10 11:06:02;;;;;;;17.52;4.38;;;21.00;56.70;;;;;;4794958;29;20069;-77
2022/05/10 11:08:51;;;;;;;19.00;4.85;;;21.00;55.90;;;;;;4825993;29;20494;-76
2022/05/10 11:14:56;;;;;;;19.98;4.88;;;21.00;56.20;;;;;;4809374;29;20081;-80
2022/05/10 11:18:01;;;;;;;11.55;4.53;;;21.00;55.10;;;;;;4809438;29;20387;-82
2022/05/10 11:21:14;;;;;;;17.08;4.68;;;21.00;54.70;;;;;;4781653;29;20062;-84
2022/05/10 11:24:22;;;;;;;11.10;4.95;;;21.00;55.70;;;;;;4819787;29;20057;-77
2022/05/10 11:27:21;;;;;;;9.93;3.90;;;21.00;55.00;;;;;;4805572;29;20046;-73
2022/05/10 11:30:06;;;;;;;16.90;4.00;;;21.10;55.10;;;;;;4805473;29;20132;-75
2022/05/10 11:37:12;;;;;;;22.30;3.97;;;21.40;53.80;;;;;;4825266;29;20045;-81
2022/05/10 11:40:10;;;;;;;11.75;3.55;;;21.40;53.10;;;;;;4736277;30;20056;-79
2022/05/10 11:43:19;;;;;;;13.93;3.53;;;21.30;53.00;;;;;;4722283;30;20052;-77
2022/05/10 11:46:09;;;;;;;11.88;3.83;;;21.40;53.50;;;;;;4753071;30;20113;-75
2022/05/10 11:49:13;;;;;;;13.98;3.15;;;21.40;53.30;;;;;;4754395;30;20044;-76
2022/05/10 11:51:48;;;;;;;10.48;2.85;;;21.50;52.30;;;;;;4820107;29;20111;-73
2022/05/10 11:54:40;;;;;;;11.65;2.47;;;21.70;52.40;;;;;;4793879;29;20099;-75
2022/05/10 11:57:31;;;;;;;13.32;3.05;;;21.60;50.70;;;;;;4808906;29;20065;-71
2022/05/10 12:00:28;;;;;;;11.85;2.83;;;21.60;49.60;;;;;;4809138;29;20058;-72
2022/05/10 12:02:54;;;;;;;15.43;2.60;;;21.40;50.10;;;;;;4808770;29;20042;-74
2022/05/10 12:05:23;;;;;;;;;;;21.30;50.60;;;;;;4809480;29;20141;-74
2022/05/10 12:08:15;;;;;;;11.68;3.33;;;21.30;50.10;;;;;;4809002;29;19921;-72
2022/05/10 12:10:43;;;;;;;10.85;3.45;;;21.20;50.70;;;;;;4796556;29;20093;-74
2022/05/10 12:13:11;;;;;;;14.68;2.75;;;21.20;51.00;;;;;;4793828;29;20439;-73
2022/05/10 12:21:28;;;;;;;;;;;20.80;52.80;;;;;;4808760;29;20054;-73
2022/05/10 12:24:13;;;;;;;11.40;3.72;;;20.60;53.00;;;;;;4808558;29;19920;-71
2022/05/10 12:26:45;;;;;;;12.80;4.40;;;20.50;52.90;;;;;;4793408;29;20137;-74
2022/05/10 12:29:32;;;;;;;14.98;4.13;;;20.20;53.30;;;;;;4808918;29;20514;-75
2022/05/10 12:32:26;;;;;;;11.05;3.60;;;20.10;54.00;;;;;;4791448;29;20053;-77
2022/05/10 12:35:04;;;;;;;14.10;3.67;;;20.10;54.20;;;;;;4808510;29;20365;-74
2022/05/10 12:37:32;;;;;;;10.98;4.07;;;19.90;54.90;;;;;;4808308;29;20046;-76
2022/05/10 12:40:04;;;;;;;14.57;4.13;;;19.90;54.70;;;;;;4808029;29;20046;-75
2022/05/10 12:42:55;;;;;;;23.17;4.75;;;19.80;54.80;;;;;;4808582;29;20464;-76
2022/05/10 12:45:55;;;;;;;16.00;4.35;;;19.80;54.80;;;;;;4808211;29;20084;-75
2022/05/10 12:49:01;;;;;;;12.25;4.20;;;19.80;54.70;;;;;;4790099;29;20067;-77
2022/05/10 12:51:32;;;;;;;13.60;3.97;;;19.70;54.80;;;;;;4823567;29;20392;-75
2022/05/10 12:54:04;;;;;;;16.42;4.00;;;19.50;54.40;;;;;;4808341;29;20058;-76
2022/05/10 12:56:35;;;;;;;11.45;4.00;;;19.60;54.70;;;;;;4812918;29;20442;-74
2022/05/10 12:59:24;;;;;;;14.98;4.15;;;19.60;54.60;;;;;;4815517;29;20050;-74
2022/05/10 13:01:52;;;;;;;14.32;3.28;;;19.50;54.10;;;;;;4815842;29;20051;-71
2022/05/10 13:04:20;;;;;;;18.05;3.92;;;19.50;54.80;;;;;;4815363;29;20061;-73
2022/05/10 13:07:23;;;;;;;14.90;3.80;;;19.50;55.70;;;;;;4809226;29;20137;-77
2022/05/10 13:10:00;;;;;;;13.35;3.65;;;19.50;55.90;;;;;;4809217;29;20053;-75
2022/05/10 13:12:36;;;;;;;12.85;3.53;;;19.30;55.90;;;;;;4812322;29;20050;-75
2022/05/10 13:15:14;;;;;;;11.95;4.72;;;19.20;55.90;;;;;;4826928;29;20053;-77
2022/05/10 13:17:45;;;;;;;12.55;3.78;;;19.10;56.60;;;;;;4826678;29;20111;-74
2022/05/10 13:20:14;;;;;;;12.32;4.10;;;18.90;56.70;;;;;;4811571;29;20057;-74
2022/05/10 13:23:06;;;;;;;14.02;4.25;;;18.80;57.10;;;;;;4811480;29;20053;-74
2022/05/10 13:25:35;;;;;;;13.45;4.03;;;18.80;57.60;;;;;;4826222;29;20133;-74
2022/05/10 13:28:29;;;;;;;13.35;4.10;;;18.60;57.80;;;;;;4810948;29;20133;-70
2022/05/10 13:31:45;;;;;;;68.25;7.40;;;18.60;58.60;;;;;;4811037;29;20042;-75
2022/05/10 13:34:46;;;;;;;15.60;3.88;;;18.50;59.00;;;;;;4808768;29;20103;-75
2022/05/10 13:37:23;;;;;;;13.18;3.50;;;18.60;59.60;;;;;;4810912;29;20046;-76
2022/05/10 13:39:48;;;;;;;11.82;3.97;;;18.70;59.40;;;;;;4811192;29;20046;-73
2022/05/10 13:42:15;;;;;;;10.95;3.50;;;18.70;59.30;;;;;;4781543;29;20102;-72
2022/05/10 13:44:41;;;;;;;11.52;3.88;;;18.80;59.10;;;;;;4811228;29;20052;-73
2022/05/10 13:47:37;;;;;;;15.88;4.20;;;18.80;59.30;;;;;;4810916;29;20046;-72
2022/05/10 13:50:02;;;;;;;13.77;4.05;;;18.80;59.80;;;;;;4810139;29;20514;-74
2022/05/10 13:52:46;;;;;;;10.95;3.60;;;18.70;60.20;;;;;;4796168;29;20088;-73
2022/05/10 13:55:17;;;;;;;11.57;3.83;;;18.80;60.30;;;;;;4826122;29;20475;-72
2022/05/10 13:58:02;;;;;;;10.05;3.65;;;18.70;60.90;;;;;;4810822;29;20054;-73
2022/05/10 14:00:40;;;;;;;11.35;3.40;;;18.80;60.70;;;;;;4811257;29;20056;-73
2022/05/10 14:03:18;;;;;;;12.38;3.97;;;18.70;61.00;;;;;;4825688;29;20054;-72
2022/05/10 14:05:47;;;;;;;10.65;3.50;;;18.70;61.20;;;;;;4827397;29;20053;-73
2022/05/10 14:08:20;;;;;;;9.75;3.08;;;18.70;61.00;;;;;;4796284;29;20476;-72
2022/05/10 14:10:58;;;;;;;13.10;3.25;;;18.60;61.50;;;;;;4810395;29;20082;-73
2022/05/10 14:13:24;;;;;;;21.73;3.72;;;18.60;62.10;;;;;;4825598;29;20046;-73
2022/05/10 14:15:53;;;;;;;20.50;3.80;;;18.50;62.30;;;;;;4825551;29;20042;-74
2022/05/10 14:18:40;;;;;;;12.75;3.70;;;18.50;62.60;;;;;;4810461;29;20042;-74
2022/05/10 14:21:24;;;;;;;10.98;3.80;;;18.30;63.40;;;;;;4809616;29;20050;-72